Time;durP1;ratioP1;P1;durP2;ratioP2;P2;SDS_P1;SDS_P2;PMS_P1;PMS_P2;Temp;Humidity;BMP_temperature;BMP_pressure;BME280_temperature;BME280_humidity;BME280_pressure;Samples;Min_cycle;Max_cycle;Signal;HPM_P1;HPM_P2
2023/09/16 00:01:08;;;;;;;;;7.67;7.67;;;;;21.20;54.59;100411.50;5057065;28;45334;-84
2023/09/16 00:03:35;;;;;;;;;15.33;12.33;;;;;21.20;54.65;100412.34;5060555;28;45490;-85
2023/09/16 00:06:04;;;;;;;;;9.33;8.00;;;;;21.21;54.73;100430.25;5059974;28;45414;-87
2023/09/16 00:08:30;;;;;;;;;8.33;7.33;;;;;21.13;54.75;100432.91;5059416;28;46611;-86
2023/09/16 00:10:55;;;;;;;;;8.33;8.00;;;;;21.10;54.81;100433.25;5059098;28;45245;-85
2023/09/16 00:13:20;;;;;;;;;10.00;7.67;;;;;21.06;55.00;100429.13;5059593;28;45278;-84
2023/09/16 00:15:48;;;;;;;;;11.00;8.67;;;;;20.98;55.22;100420.13;5060108;28;45816;-82
2023/09/16 00:18:19;;;;;;;;;10.67;9.33;;;;;20.85;55.00;100407.03;5060764;28;45349;-84
2023/09/16 00:20:48;;;;;;;;;9.00;7.67;;;;;20.94;55.44;100427.69;5060366;28;45491;-83
2023/09/16 00:23:14;;;;;;;;;8.00;7.33;;;;;20.86;55.47;100422.22;5058971;28;45161;-87
2023/09/16 00:25:39;;;;;;;;;10.67;9.67;;;;;20.86;55.74;100422.22;5059295;28;45286;-82
2023/09/16 00:28:06;;;;;;;;;7.67;6.67;;;;;20.75;56.05;100403.56;5058014;28;65800;-84
2023/09/16 00:30:32;;;;;;;;;11.00;11.00;;;;;20.76;55.96;100421.47;5058276;28;45427;-80
2023/09/16 00:32:58;;;;;;;;;10.33;10.33;;;;;20.55;56.15;100389.34;5057091;28;45381;-83
2023/09/16 00:35:23;;;;;;;;;8.33;8.33;;;;;20.66;56.14;100404.47;5059000;28;45428;-87
2023/09/16 00:37:48;;;;;;;;;9.00;9.00;;;;;20.71;56.22;100426.50;5057965;28;72400;-85
2023/09/16 00:40:14;;;;;;;;;12.00;9.00;;;;;20.59;56.55;100410.50;5059048;28;45481;-83
2023/09/16 00:42:40;;;;;;;;;8.00;8.00;;;;;20.51;56.65;100394.22;5059313;28;45241;-83
2023/09/16 00:45:07;;;;;;;;;9.33;9.00;;;;;20.48;56.76;100394.53;5059812;28;45161;-82
2023/09/16 00:47:33;;;;;;;;;7.67;7.67;;;;;20.57;56.87;100408.94;5060357;28;45417;-84
2023/09/16 00:49:59;;;;;;;;;11.00;10.00;;;;;20.46;57.17;100407.34;5059216;28;45323;-83
2023/09/16 00:52:26;;;;;;;;;11.00;8.00;;;;;20.47;56.94;100413.59;5059553;28;45412;-84
2023/09/16 00:54:53;;;;;;;;;7.00;7.00;;;;;20.39;57.22;100399.97;5060030;28;45476;-85
2023/09/16 00:57:19;;;;;;;;;8.00;8.00;;;;;20.44;56.99;100414.72;5060365;28;45983;-81
2023/09/16 00:59:44;;;;;;;;;10.67;7.67;;;;;20.37;57.25;100407.38;5056295;28;45932;-84
2023/09/16 01:02:10;;;;;;;;;11.67;8.33;;;;;20.36;57.52;100405.69;5048440;28;45762;-85
2023/09/16 01:04:38;;;;;;;;;9.33;9.33;;;;;20.12;57.63;100365.78;5061230;28;45603;-83
2023/09/16 01:07:05;;;;;;;;;6.33;6.33;;;;;20.17;57.10;100374.25;5060419;28;46127;-85
2023/09/16 01:09:31;;;;;;;;;7.33;7.33;;;;;20.21;57.61;100386.47;5060542;28;45407;-84
2023/09/16 01:11:56;;;;;;;;;9.67;8.00;;;;;20.23;57.87;100398.81;5059800;28;45461;-84
2023/09/16 01:14:23;;;;;;;;;8.00;8.00;;;;;20.21;57.49;100397.28;5060725;28;45464;-85
2023/09/16 01:16:58;;;;;;;;;8.00;8.00;;;;;20.13;57.74;100386.38;5058917;28;45560;-83
2023/09/16 01:19:44;;;;;;;;;13.33;9.67;;;;;20.24;57.71;100391.56;5044994;28;45506;-83
2023/09/16 01:22:10;;;;;;;;;8.33;8.00;;;;;20.02;58.20;100368.53;5058326;28;45239;-83
2023/09/16 01:24:36;;;;;;;;;11.00;9.67;;;;;19.99;58.10;100380.50;5058092;28;45230;-85
2023/09/16 01:27:02;;;;;;;;;10.33;9.33;;;;;20.16;58.01;100394.16;5059359;28;45451;-85
2023/09/16 01:29:28;;;;;;;;;8.67;7.33;;;;;20.18;58.03;100389.44;5060325;28;45595;-83
2023/09/16 01:31:59;;;;;;;;;10.00;8.33;;;;;20.16;58.02;100388.75;5059624;28;45252;-84
2023/09/16 01:34:27;;;;;;;;;8.33;7.33;;;;;20.13;58.63;100389.06;5058813;28;45424;-85
2023/09/16 01:36:57;;;;;;;;;8.00;8.00;;;;;19.97;58.29;100371.69;5057990;28;45292;-86
2023/09/16 01:39:24;;;;;;;;;5.33;5.33;;;;;20.02;57.97;100377.47;5057258;28;45444;-84
2023/09/16 01:41:52;;;;;;;;;8.67;8.67;;;;;19.89;58.21;100362.66;5057783;28;45367;-86
2023/09/16 01:44:17;;;;;;;;;9.33;6.33;;;;;20.11;58.18;100396.47;5058400;28;45176;-85
2023/09/16 01:46:43;;;;;;;;;10.00;7.33;;;;;20.13;58.12;100399.88;5057502;28;45385;-85
2023/09/16 01:49:08;;;;;;;;;9.33;8.33;;;;;20.01;58.22;100375.78;5058151;28;45230;-83
2023/09/16 01:51:33;;;;;;;;;11.00;10.00;;;;;19.94;57.97;100358.50;5057924;28;45704;-83
2023/09/16 01:53:59;;;;;;;;;7.00;7.00;;;;;19.90;58.14;100351.69;5058086;28;45201;-86
2023/09/16 01:56:25;;;;;;;;;8.00;8.00;;;;;19.96;58.11;100358.34;5058436;28;45275;-83
2023/09/16 01:58:50;;;;;;;;;8.67;7.00;;;;;20.01;58.42;100372.22;5059086;28;45444;-83
2023/09/16 02:01:15;;;;;;;;;9.33;8.00;;;;;19.95;58.47;100370.16;5059415;28;61269;-84
2023/09/16 02:03:41;;;;;;;;;10.67;10.33;;;;;19.85;58.30;100359.41;5058238;28;45422;-83
2023/09/16 02:06:06;;;;;;;;;8.67;8.67;;;;;19.95;58.46;100371.00;5058004;28;60250;-82
2023/09/16 02:08:32;;;;;;;;;3.00;3.00;;;;;19.99;58.96;100374.25;5059110;28;45299;-84
2023/09/16 02:10:57;;;;;;;;;9.00;9.00;;;;;20.00;58.87;100368.69;5058432;28;45325;-85
2023/09/16 02:13:22;;;;;;;;;9.33;8.00;;;;;19.89;59.07;100347.31;5059122;28;45462;-84
2023/09/16 02:15:48;;;;;;;;;8.33;8.33;;;;;19.84;58.97;100352.31;5060139;28;47212;-86
2023/09/16 02:18:13;;;;;;;;;7.00;7.00;;;;;19.80;59.06;100350.94;5058187;28;46205;-88
2023/09/16 02:20:38;;;;;;;;;8.00;8.00;;;;;19.87;59.22;100352.00;5060704;28;45434;-84
2023/09/16 02:23:04;;;;;;;;;9.00;8.33;;;;;19.86;59.43;100350.31;5072652;28;55813;-85
2023/09/16 02:25:32;;;;;;;;;8.33;7.67;;;;;19.91;59.23;100366.88;5073503;28;47051;-85
2023/09/16 02:27:57;;;;;;;;;9.33;9.33;;;;;19.82;59.32;100343.53;5075570;28;44775;-84
2023/09/16 02:30:23;;;;;;;;;10.33;9.33;;;;;19.88;60.00;100364.50;5077128;28;44622;-88
2023/09/16 02:32:48;;;;;;;;;9.67;9.67;;;;;19.85;59.71;100354.00;5073684;28;45318;-86
2023/09/16 02:35:13;;;;;;;;;11.67;8.33;;;;;19.66;59.98;100316.34;5069431;28;46222;-82
2023/09/16 02:37:39;;;;;;;;;10.00;10.00;;;;;19.62;60.42;100325.75;5062471;28;45215;-85
2023/09/16 02:40:05;;;;;;;;;9.00;9.00;;;;;19.61;60.55;100321.34;5060327;28;45383;-83
2023/09/16 02:42:30;;;;;;;;;8.67;8.67;;;;;19.74;59.99;100346.13;5059352;28;45505;-84
2023/09/16 02:44:55;;;;;;;;;10.33;9.67;;;;;19.76;59.87;100354.91;5057435;28;64676;-83
2023/09/16 02:47:21;;;;;;;;;10.00;8.33;;;;;19.60;60.38;100322.34;5058153;28;45326;-84
2023/09/16 02:49:46;;;;;;;;;11.67;8.00;;;;;19.80;60.43;100347.38;5056927;28;45488;-85
2023/09/16 02:52:11;;;;;;;;;8.00;8.00;;;;;19.60;60.43;100323.19;5057230;28;45619;-84
2023/09/16 02:54:37;;;;;;;;;7.00;7.00;;;;;19.57;60.42;100337.00;5057142;28;45262;-84
2023/09/16 02:57:02;;;;;;;;;10.33;9.00;;;;;19.65;60.97;100347.00;5057400;28;45451;-82
2023/09/16 02:59:28;;;;;;;;;9.67;7.67;;;;;19.63;60.80;100351.72;5056093;27;45408;-84
2023/09/16 03:01:53;;;;;;;;;7.00;7.00;;;;;19.56;61.01;100331.75;5055495;28;45445;-82
2023/09/16 03:04:18;;;;;;;;;11.00;7.67;;;;;19.30;60.84;100294.66;5056828;28;45472;-84
2023/09/16 03:06:44;;;;;;;;;8.00;8.00;;;;;19.46;61.43;100326.38;5056347;28;54861;-84
2023/09/16 03:09:09;;;;;;;;;10.67;9.00;;;;;19.54;61.68;100339.97;5055867;28;52533;-84
2023/09/16 03:11:37;;;;;;;;;13.33;10.67;;;;;19.41;61.99;100324.13;5056223;28;45462;-85
2023/09/16 03:14:02;;;;;;;;;11.00;10.00;;;;;19.40;61.85;100330.53;5057591;28;45372;-86
2023/09/16 03:16:27;;;;;;;;;8.00;8.00;;;;;19.47;62.16;100340.69;5056372;28;50937;-83
2023/09/16 03:18:53;;;;;;;;;9.00;9.00;;;;;19.34;62.15;100331.09;5055602;28;46796;-83
2023/09/16 03:21:22;;;;;;;;;11.33;10.00;;;;;19.29;62.63;100330.72;5055721;28;45600;-86
2023/09/16 03:23:47;;;;;;;;;8.00;8.00;;;;;19.32;62.78;100335.81;5056781;28;45325;-83
2023/09/16 03:26:13;;;;;;;;;8.00;7.33;;;;;19.14;62.41;100305.19;5056557;28;56750;-84
2023/09/16 03:28:41;;;;;;;;;8.33;7.00;;;;;19.30;62.65;100347.75;5056919;28;45275;-83
2023/09/16 03:31:07;;;;;;;;;8.67;8.67;;;;;18.86;62.87;100280.06;5058693;28;45174;-83
2023/09/16 03:33:33;;;;;;;;;10.67;9.33;;;;;19.24;63.19;100341.06;5058640;28;46012;-86
2023/09/16 03:35:58;;;;;;;;;9.33;8.67;;;;;19.15;63.12;100318.56;5059287;28;45441;-82
2023/09/16 03:38:30;;;;;;;;;8.00;8.00;;;;;19.20;63.22;100323.50;5060547;28;45349;-83
2023/09/16 03:40:57;;;;;;;;;6.67;6.67;;;;;19.18;63.56;100328.19;5062015;28;45323;-84
2023/09/16 03:43:22;;;;;;;;;12.00;9.33;;;;;19.15;63.75;100317.72;5061487;28;45266;-82
2023/09/16 03:45:47;;;;;;;;;8.33;8.33;;;;;19.13;63.60;100319.69;5062394;28;45203;-85
2023/09/16 03:48:13;;;;;;;;;8.67;8.67;;;;;18.62;63.70;100239.25;5061600;28;45453;-84
2023/09/16 03:50:38;;;;;;;;;9.67;9.33;;;;;18.92;63.57;100300.19;5060844;28;45219;-85
2023/09/16 03:53:03;;;;;;;;;9.33;9.33;;;;;19.05;63.55;100331.22;5062709;28;46152;-88
2023/09/16 03:55:29;;;;;;;;;7.33;7.33;;;;;19.07;63.83;100320.28;5065499;28;45827;-83
2023/09/16 03:57:55;;;;;;;;;9.00;9.00;;;;;18.98;64.09;100313.91;5063031;28;45413;-86
2023/09/16 04:00:20;;;;;;;;;8.33;8.33;;;;;19.06;64.04;100321.28;5061664;28;45643;-85
2023/09/16 04:02:46;;;;;;;;;9.33;9.33;;;;;18.97;63.87;100314.91;5077994;27;46503;-82
2023/09/16 04:05:12;;;;;;;;;10.00;10.00;;;;;18.99;63.93;100318.31;5062330;28;45502;-86
2023/09/16 04:07:38;;;;;;;;;8.00;7.33;;;;;18.78;63.59;100278.13;5061015;28;45336;-85
2023/09/16 04:10:03;;;;;;;;;10.33;10.00;;;;;18.60;64.29;100258.25;5061289;28;45647;-84
2023/09/16 04:12:29;;;;;;;;;11.00;9.67;;;;;18.97;64.92;100304.13;5060348;28;46341;-83
2023/09/16 04:14:54;;;;;;;;;10.33;9.00;;;;;18.88;65.07;100304.16;5059674;28;45511;-85
2023/09/16 04:17:19;;;;;;;;;10.33;8.67;;;;;18.86;64.95;100307.84;5059286;28;54141;-84
2023/09/16 04:19:44;;;;;;;;;11.00;10.33;;;;;18.84;65.07;100304.47;5059465;28;45387;-84
2023/09/16 04:22:10;;;;;;;;;10.00;10.00;;;;;18.52;65.37;100250.09;5058681;28;68836;-85
2023/09/16 04:24:35;;;;;;;;;10.33;9.00;;;;;18.72;65.78;100281.38;5061505;28;45287;-83
2023/09/16 04:27:00;;;;;;;;;10.33;7.67;;;;;18.75;66.01;100297.28;5064101;28;63057;-81
2023/09/16 04:29:26;;;;;;;;;7.67;7.67;;;;;18.77;65.40;100314.13;5073656;28;45536;-84
2023/09/16 04:31:51;;;;;;;;;7.00;7.00;;;;;18.71;66.02;100284.22;5071117;28;45172;-84
2023/09/16 04:34:16;;;;;;;;;11.67;11.33;;;;;18.54;66.17;100253.47;5059506;28;45414;-87
2023/09/16 04:36:42;;;;;;;;;8.00;8.00;;;;;18.21;66.50;100220.66;5059840;28;45666;-82
2023/09/16 04:39:08;;;;;;;;;10.00;10.00;;;;;18.64;66.29;100308.22;5059007;28;54118;-84
2023/09/16 04:41:34;;;;;;;;;9.00;9.00;;;;;18.56;66.76;100289.19;5058997;28;45253;-82
2023/09/16 04:43:59;;;;;;;;;10.00;8.33;;;;;18.45;67.04;100276.72;5074501;28;45678;-83
2023/09/16 04:46:24;;;;;;;;;9.00;9.00;;;;;18.46;66.67;100272.19;5058095;28;45287;-83
2023/09/16 04:48:50;;;;;;;;;10.33;10.33;;;;;18.34;66.77;100257.19;5057935;28;53958;-81
2023/09/16 04:51:15;;;;;;;;;11.00;9.00;;;;;18.56;67.17;100299.97;5058468;28;46507;-83
2023/09/16 04:53:41;;;;;;;;;7.67;7.67;;;;;18.45;67.22;100286.66;5058481;28;45348;-84
2023/09/16 04:56:09;;;;;;;;;11.00;9.00;;;;;18.43;67.49;100283.25;5059549;28;45391;-83
2023/09/16 04:58:35;;;;;;;;;13.00;10.33;;;;;18.50;66.95;100303.25;5059043;28;45401;-82
2023/09/16 05:01:05;;;;;;;;;7.33;7.33;;;;;18.40;67.09;100288.94;5059595;28;45230;-82
2023/09/16 05:03:31;;;;;;;;;10.33;10.33;;;;;18.52;67.06;100310.19;5060361;28;45404;-83
2023/09/16 05:05:56;;;;;;;;;8.00;8.00;;;;;18.52;67.59;100309.31;5059518;28;45340;-84
2023/09/16 05:08:22;;;;;;;;;7.00;7.00;;;;;18.47;67.79;100301.66;5060018;28;45611;-82
2023/09/16 05:10:54;;;;;;;;;11.00;9.33;;;;;18.38;67.94;100293.63;5060893;28;45353;-85
2023/09/16 05:13:20;;;;;;;;;13.00;10.67;;;;;18.24;67.96;100282.28;5077730;28;45258;-83
2023/09/16 05:15:55;;;;;;;;;12.33;10.00;;;;;18.26;68.33;100293.75;5063144;28;44717;-83
2023/09/16 05:18:21;;;;;;;;;12.00;11.67;;;;;18.25;67.98;100296.59;5063002;28;45343;-84
2023/09/16 05:20:49;;;;;;;;;10.00;10.00;;;;;18.26;68.34;100288.38;5059849;28;45472;-83
2023/09/16 05:23:16;;;;;;;;;11.33;10.33;;;;;18.41;68.39;100317.56;5059587;28;45342;-82
2023/09/16 05:25:48;;;;;;;;;12.00;12.00;;;;;18.34;68.20;100322.66;5059805;28;45456;-80
2023/09/16 05:28:14;;;;;;;;;18.00;15.00;;;;;18.40;68.31;100329.31;5058065;28;45333;-84
2023/09/16 05:30:39;;;;;;;;;18.67;17.00;;;;;18.39;68.58;100333.00;5059927;28;45883;-80
2023/09/16 05:33:04;;;;;;;;;21.67;20.33;;;;;18.26;68.06;100312.59;5061809;28;45338;-82
2023/09/16 05:35:30;;;;;;;;;23.00;20.00;;;;;18.40;68.54;100327.47;5062505;28;61314;-85
2023/09/16 05:37:57;;;;;;;;;25.50;24.00;;;;;18.15;68.59;100301.13;5060639;28;45421;-81
2023/09/16 05:40:23;;;;;;;;;31.00;26.67;;;;;18.14;68.45;100299.44;5059703;28;46226;-80
2023/09/16 05:42:50;;;;;;;;;34.33;30.67;;;;;18.36;68.69;100341.34;5058516;28;45403;-81
2023/09/16 05:45:16;;;;;;;;;33.67;31.33;;;;;18.35;69.11;100342.34;5058608;27;45306;-82
2023/09/16 05:47:42;;;;;;;;;40.67;33.00;;;;;18.35;68.90;100339.66;5058737;28;45399;-82
2023/09/16 05:50:07;;;;;;;;;42.33;34.00;;;;;18.23;68.71;100320.97;5058856;28;46314;-82
2023/09/16 05:52:33;;;;;;;;;38.33;33.33;;;;;18.38;69.03;100329.47;5059387;28;45326;-81
2023/09/16 05:54:59;;;;;;;;;47.00;37.67;;;;;18.50;68.49;100349.88;5057923;28;45435;-83
2023/09/16 05:57:25;;;;;;;;;37.67;34.33;;;;;18.46;68.30;100315.28;5057033;28;45497;-83
2023/09/16 05:59:50;;;;;;;;;27.67;27.67;;;;;18.64;68.04;100337.84;5057692;28;45319;-82
2023/09/16 06:02:17;;;;;;;;;25.67;21.67;;;;;18.68;67.90;100351.84;5058716;28;45361;-88
2023/09/16 06:04:43;;;;;;;;;23.00;17.33;;;;;18.65;68.18;100347.63;5055991;27;45741;-79
2023/09/16 06:07:08;;;;;;;;;18.33;17.00;;;;;18.54;68.39;100335.13;5074262;28;45530;-79
2023/09/16 06:09:33;;;;;;;;;14.67;12.33;;;;;18.66;68.16;100357.41;5062539;27;46137;-80
2023/09/16 06:11:59;;;;;;;;;13.00;12.00;;;;;18.73;67.60;100349.56;5055903;28;59227;-80
2023/09/16 06:14:24;;;;;;;;;12.67;12.67;;;;;18.83;67.49;100347.72;5076402;28;45429;-80
2023/09/16 06:16:50;;;;;;;;;12.67;12.67;;;;;18.98;67.09;100350.81;5094478;27;45499;-82
2023/09/16 06:19:15;;;;;;;;;13.00;10.00;;;;;19.01;66.51;100347.81;5078547;28;47088;-80
2023/09/16 06:21:40;;;;;;;;;14.00;12.00;;;;;18.97;66.76;100336.47;5061490;28;58857;-79
2023/09/16 06:24:06;;;;;;;;;13.33;11.67;;;;;19.08;66.41;100343.53;5072209;28;45361;-81
2023/09/16 06:26:31;;;;;;;;;13.00;13.00;;;;;19.22;66.25;100364.63;5077642;27;45674;-80
2023/09/16 06:28:58;;;;;;;;;13.33;13.00;;;;;19.16;66.25;100349.06;5062179;27;46886;-79
2023/09/16 06:31:23;;;;;;;;;15.00;14.33;;;;;19.29;65.48;100360.38;5080670;27;64062;-82
2023/09/16 06:33:49;;;;;;;;;17.00;13.67;;;;;19.42;65.89;100373.53;5056491;28;56557;-79
2023/09/16 06:36:23;;;;;;;;;13.67;13.33;;;;;19.49;65.20;100374.59;5071986;28;45382;-81
2023/09/16 06:38:50;;;;;;;;;11.67;11.67;;;;;19.51;65.61;100382.56;5061612;27;46192;-82
2023/09/16 06:41:15;;;;;;;;;13.00;13.00;;;;;19.52;65.37;100373.47;5077247;27;45699;-82
2023/09/16 06:43:41;;;;;;;;;16.67;16.67;;;;;19.57;64.93;100382.84;5078116;28;45372;-80
2023/09/16 06:46:06;;;;;;;;;15.67;14.00;;;;;19.58;64.88;100378.31;5073906;27;45532;-81
2023/09/16 06:48:31;;;;;;;;;13.67;13.67;;;;;19.55;64.60;100373.22;5059263;28;45289;-84
2023/09/16 06:50:57;;;;;;;;;14.67;14.67;;;;;19.68;64.92;100379.13;5078929;28;45408;-84
2023/09/16 06:53:22;;;;;;;;;14.33;14.33;;;;;19.71;65.14;100370.72;5075672;28;54572;-82
2023/09/16 06:55:48;;;;;;;;;13.00;12.00;;;;;19.67;64.66;100380.97;5065676;28;45318;-84
2023/09/16 06:58:13;;;;;;;;;17.67;14.67;;;;;19.77;64.75;100375.50;5059009;28;45381;-81
2023/09/16 07:00:39;;;;;;;;;17.33;13.67;;;;;19.79;64.43;100373.50;5073083;28;45338;-82
2023/09/16 07:03:05;;;;;;;;;13.67;13.67;;;;;19.71;64.90;100351.81;5078021;28;45639;-83
2023/09/16 07:05:31;;;;;;;;;15.00;13.00;;;;;19.69;64.51;100351.97;5072171;28;45337;-82
2023/09/16 07:07:56;;;;;;;;;19.67;17.33;;;;;19.86;64.58;100366.50;5075709;28;46055;-83
2023/09/16 07:10:22;;;;;;;;;13.00;13.00;;;;;19.87;64.41;100357.41;5078748;27;45476;-82
2023/09/16 07:12:47;;;;;;;;;15.67;14.33;;;;;19.77;64.17;100329.63;5063035;28;45408;-85
2023/09/16 07:15:12;;;;;;;;;11.67;11.67;;;;;20.07;63.67;100355.44;5066923;27;45645;-84
2023/09/16 07:17:38;;;;;;;;;16.67;16.67;;;;;20.00;63.79;100336.28;5083963;28;45360;-81
2023/09/16 07:20:05;;;;;;;;;16.00;15.00;;;;;20.14;63.55;100344.88;5080190;28;45419;-82
2023/09/16 07:22:31;;;;;;;;;15.00;15.00;;;;;20.20;63.81;100350.53;5081908;27;45333;-83
2023/09/16 07:24:56;;;;;;;;;15.00;15.00;;;;;20.22;63.67;100356.59;5073503;27;45207;-83
2023/09/16 07:27:23;;;;;;;;;18.50;17.00;;;;;20.27;63.72;100351.59;5068451;27;46001;-80
2023/09/16 07:29:48;;;;;;;;;17.33;15.67;;;;;20.27;63.30;100350.72;5056936;28;45497;-84
2023/09/16 07:32:13;;;;;;;;;16.67;13.67;;;;;20.35;63.36;100350.81;5066892;28;45248;-82
2023/09/16 07:34:39;;;;;;;;;16.00;14.33;;;;;20.45;63.20;100365.13;5077107;27;57016;-84
2023/09/16 07:37:04;;;;;;;;;15.00;13.67;;;;;20.53;62.90;100370.59;5089330;27;47127;-83
2023/09/16 07:39:30;;;;;;;;;15.00;14.67;;;;;20.54;62.58;100349.81;5079978;28;45204;-86
2023/09/16 07:41:56;;;;;;;;;15.33;15.33;;;;;20.46;62.49;100339.81;5071077;27;45230;-86
2023/09/16 07:44:21;;;;;;;;;17.33;14.33;;;;;20.55;62.73;100346.97;5073079;28;45373;-80
2023/09/16 07:46:48;;;;;;;;;20.00;17.00;;;;;20.72;62.61;100357.94;5092804;27;45387;-84
2023/09/16 07:49:16;;;;;;;;;15.67;14.67;;;;;20.78;62.23;100366.25;5077489;28;45710;-87
2023/09/16 07:51:42;;;;;;;;;13.33;12.00;;;;;20.86;62.32;100366.31;5065642;28;45452;-81
2023/09/16 07:54:07;;;;;;;;;15.33;11.33;;;;;20.97;62.26;100367.91;5067853;28;45230;-81
2023/09/16 07:56:33;;;;;;;;;16.33;16.00;;;;;20.88;61.87;100347.22;5063281;28;45572;-84
2023/09/16 07:58:59;;;;;;;;;15.00;15.00;;;;;20.83;61.56;100327.91;5064172;28;45511;-81
2023/09/16 08:01:24;;;;;;;;;14.67;14.67;;;;;21.18;61.55;100381.91;5057526;27;45410;-82
2023/09/16 08:03:49;;;;;;;;;15.67;14.00;;;;;20.96;61.42;100341.00;5039776;28;45536;-83
2023/09/16 08:06:15;;;;;;;;;18.00;16.00;;;;;21.36;60.97;100384.59;5040572;28;46180;-81
2023/09/16 08:08:40;;;;;;;;;15.67;15.67;;;;;21.44;61.01;100371.09;5038042;28;68978;-83
2023/09/16 08:11:05;;;;;;;;;15.00;13.67;;;;;21.60;60.35;100375.72;5039162;28;45494;-80
2023/09/16 08:13:32;;;;;;;;;15.00;14.00;;;;;21.58;60.35;100363.38;5042028;28;45374;-77
2023/09/16 08:15:58;;;;;;;;;18.67;17.00;;;;;21.70;60.33;100368.34;5042091;28;45324;-79
2023/09/16 08:18:23;;;;;;;;;15.33;15.33;;;;;21.85;59.81;100383.94;5044389;28;45501;-83
2023/09/16 08:20:48;;;;;;;;;16.67;16.67;;;;;21.85;59.81;100373.97;5067377;28;45615;-81
2023/09/16 08:23:14;;;;;;;;;18.00;14.00;;;;;21.88;59.69;100375.53;5067440;28;45343;-83
2023/09/16 08:25:41;;;;;;;;;13.33;11.00;;;;;21.93;59.39;100370.44;5080032;28;47099;-81
2023/09/16 08:28:07;;;;;;;;;17.00;17.00;;;;;21.91;59.47;100361.66;5088208;28;45394;-81
2023/09/16 08:30:32;;;;;;;;;13.67;12.67;;;;;22.12;59.71;100382.88;5103291;27;45347;-83
2023/09/16 08:32:57;;;;;;;;;10.67;10.67;;;;;21.90;59.15;100354.53;5086731;27;45770;-81
2023/09/16 08:35:25;;;;;;;;;12.67;11.67;;;;;21.99;59.16;100367.91;5082597;28;45295;-84
2023/09/16 08:37:51;;;;;;;;;12.33;12.00;;;;;22.04;59.24;100372.84;5068017;27;45473;-84
2023/09/16 08:40:17;;;;;;;;;13.00;13.00;;;;;21.97;59.49;100364.53;5072881;28;45433;-83
2023/09/16 08:42:54;;;;;;;;;10.00;9.33;;;;;22.05;59.57;100372.72;5069046;28;45357;-84
2023/09/16 08:45:24;;;;;;;;;12.33;12.33;;;;;22.11;59.11;100379.31;5070635;28;46165;-84
2023/09/16 08:47:56;;;;;;;;;14.33;13.67;;;;;22.07;58.95;100361.72;5084406;28;45318;-82
2023/09/16 08:50:27;;;;;;;;;13.00;13.00;;;;;22.15;59.54;100375.28;5078460;28;45386;-82
2023/09/16 08:53:00;;;;;;;;;15.67;13.67;;;;;22.21;59.61;100379.19;5098291;27;45401;-82
2023/09/16 08:55:29;;;;;;;;;14.00;12.33;;;;;22.25;58.95;100375.97;5080384;28;46385;-81
2023/09/16 08:58:06;;;;;;;;;15.33;13.00;;;;;22.28;58.93;100381.06;5079518;28;45377;-87
2023/09/16 09:00:32;;;;;;;;;16.00;12.00;;;;;22.38;59.06;100375.47;5076480;28;45506;-85
2023/09/16 09:02:57;;;;;;;;;9.33;9.00;;;;;22.33;58.50;100351.59;5077501;28;45404;-88
2023/09/16 09:05:25;;;;;;;;;14.67;13.33;;;;;22.56;58.42;100373.47;5087527;27;45384;-83
2023/09/16 09:07:51;;;;;;;;;17.00;14.33;;;;;22.66;58.17;100374.16;5076649;27;45615;-85
2023/09/16 09:10:16;;;;;;;;;15.33;13.00;;;;;22.62;58.25;100352.97;5067582;28;45950;-85
2023/09/16 09:12:43;;;;;;;;;14.00;13.67;;;;;22.80;57.77;100375.34;5058824;28;45620;-82
2023/09/16 09:15:11;;;;;;;;;12.33;12.33;;;;;22.78;57.53;100352.97;5074142;28;46204;-85
2023/09/16 09:17:54;;;;;;;;;14.33;14.33;;;;;22.91;57.41;100350.59;5079982;28;45251;-87
2023/09/16 09:20:22;;;;;;;;;13.33;11.33;;;;;22.97;56.79;100345.53;5054516;28;45594;-85
2023/09/16 09:22:50;;;;;;;;;12.67;12.67;;;;;23.20;56.89;100376.34;5067940;28;45388;-81
2023/09/16 09:25:19;;;;;;;;;15.33;13.00;;;;;23.14;56.63;100368.88;5069632;28;45473;-83
2023/09/16 09:27:45;;;;;;;;;14.00;12.67;;;;;23.15;56.76;100373.28;5068044;28;45523;-82
2023/09/16 09:30:10;;;;;;;;;10.00;10.00;;;;;22.93;57.06;100329.63;5055100;28;45403;-82
2023/09/16 09:32:37;;;;;;;;;10.00;7.25;;;;;23.12;56.88;100362.78;5082521;28;45566;-82
2023/09/16 09:35:07;;;;;;;;;14.33;14.33;;;;;23.27;57.29;100377.34;5077155;28;45430;-85
2023/09/16 09:37:33;;;;;;;;;16.33;15.00;;;;;23.31;57.39;100383.25;5090138;27;45421;-84
2023/09/16 09:40:11;;;;;;;;;17.00;15.00;;;;;23.36;56.48;100370.88;5078403;27;45460;-81
2023/09/16 09:42:41;;;;;;;;;14.33;11.33;;;;;23.48;56.72;100379.50;5077592;28;45530;-82
2023/09/16 09:45:07;;;;;;;;;15.25;14.00;;;;;23.44;55.73;100348.31;5060951;28;46257;-81
2023/09/16 09:47:34;;;;;;;;;14.00;13.00;;;;;23.54;55.65;100362.50;5076314;28;45460;-80
2023/09/16 09:50:00;;;;;;;;;11.00;11.00;;;;;23.54;55.82;100366.06;5083738;27;44832;-82
2023/09/16 09:52:29;;;;;;;;;15.75;12.00;;;;;23.58;55.96;100363.03;5083705;28;45332;-82
2023/09/16 09:54:57;;;;;;;;;12.67;12.67;;;;;23.60;55.36;100356.41;5081694;28;47431;-80
2023/09/16 09:57:22;;;;;;;;;14.25;11.50;;;;;23.75;55.00;100360.06;5073155;28;45512;-83
2023/09/16 09:59:48;;;;;;;;;9.00;7.00;;;;;23.79;54.78;100341.56;5068246;28;45443;-82
2023/09/16 10:02:14;;;;;;;;;10.00;10.00;;;;;23.86;54.45;100328.13;5068746;28;45545;-80
2023/09/16 10:04:43;;;;;;;;;11.00;9.00;;;;;24.16;53.90;100356.28;5068999;27;45418;-80
2023/09/16 10:07:08;;;;;;;;;9.33;9.33;;;;;24.41;53.63;100355.13;5069271;28;45891;-85
2023/09/16 10:09:33;;;;;;;;;11.33;11.33;;;;;24.48;52.60;100339.78;5055851;28;45711;-84
2023/09/16 10:12:00;;;;;;;;;13.25;10.00;;;;;24.77;52.21;100349.06;5065934;28;45470;-82
2023/09/16 10:14:26;;;;;;;;;12.25;12.25;;;;;24.98;51.76;100341.03;5064845;28;46396;-82
2023/09/16 10:16:52;;;;;;;;;13.00;10.75;;;;;25.10;51.30;100347.72;5076768;27;45362;-82
2023/09/16 10:19:20;;;;;;;;;11.75;10.50;;;;;25.31;51.26;100346.16;5053244;27;45569;-82
2023/09/16 10:21:46;;;;;;;;;15.50;14.75;;;;;25.56;50.54;100347.56;5070230;28;45337;-78
2023/09/16 10:24:12;;;;;;;;;11.50;9.75;;;;;25.42;49.15;100316.59;5077220;28;45700;-80
2023/09/16 10:26:38;;;;;;;;;10.00;10.00;;;;;25.41;48.97;100301.28;5068714;27;45383;-79
2023/09/16 10:29:05;;;;;;;;;15.50;11.00;;;;;25.71;49.18;100333.97;5058865;27;45525;-83
2023/09/16 10:31:31;;;;;;;;;10.75;7.75;;;;;25.83;48.68;100337.88;5066763;28;45472;-82
2023/09/16 10:33:57;;;;;;;;;10.00;10.00;;;;;25.93;48.56;100345.75;5073400;28;45445;-79
2023/09/16 10:36:25;;;;;;;;;13.75;13.75;;;;;26.00;48.42;100322.16;5059777;28;45491;-80
2023/09/16 10:38:51;;;;;;;;;11.00;9.00;;;;;26.31;47.93;100343.66;5077081;28;45417;-82
2023/09/16 10:41:17;;;;;;;;;8.25;8.25;;;;;26.38;47.95;100350.06;5076683;28;45375;-82
2023/09/16 10:43:44;;;;;;;;;9.00;8.25;;;;;26.38;47.44;100340.00;5077241;28;46212;-82
2023/09/16 10:46:10;;;;;;;;;10.25;8.25;;;;;26.50;47.34;100353.94;5075135;28;45409;-85
2023/09/16 10:48:36;;;;;;;;;11.75;11.00;;;;;26.62;46.95;100362.44;5077082;28;45249;-81
2023/09/16 10:51:08;;;;;;;;;16.25;13.00;;;;;26.68;46.22;100361.66;5077594;28;45502;-79
2023/09/16 10:53:36;;;;;;;;;13.00;8.75;;;;;26.59;46.40;100344.59;5048894;27;47369;-78
2023/09/16 10:56:15;;;;;;;;;7.20;7.20;;;;;26.42;46.75;100321.34;5072442;28;45643;-83
2023/09/16 10:58:50;;;;;;;;;7.00;7.00;;;;;26.74;46.57;100349.97;5074453;27;45451;-79
2023/09/16 11:01:21;;;;;;;;;11.25;10.50;;;;;26.67;46.19;100335.41;5069453;28;45453;-87
2023/09/16 11:03:55;;;;;;;;;11.50;10.00;;;;;26.77;45.58;100349.56;5078751;28;45696;-83
2023/09/16 11:06:20;;;;;;;;;10.20;9.00;;;;;26.99;45.16;100351.22;5073592;28;45232;-86
2023/09/16 11:08:46;;;;;;;;;9.00;9.00;;;;;26.98;44.72;100327.72;5078047;28;45459;-82
2023/09/16 11:11:13;;;;;;;;;11.00;9.25;;;;;27.09;44.60;100333.69;5069514;28;45333;-85